Dakota Dunes, South Dakota
Current Conditions -  °F | °C
As of 6:52 AM on Wednesday 26 Nov 2014 (Local Time) from KSUX Reporting Station
Light Snow Light Snow  
Wind Chill: 23°   Ceiling: 700
Heat Index: 35°   Visibility: 6mi
Dew Point: 33°   Wind: 24mph
Humidity: 92%   Direction: 340°NNW
Pressure: 29.91"   Gusts: NA
Location:  42.532°N, 96.5446°W
Report Text: KSUX 261252Z 34021KT 6SM -SN BR OVC007 02/01 A2991 RMK AO2 RAE22B38E45UPB10E13B34E38SNB45 SLP138 P0001 T00170006
Loading
Personal Weather Stations






























Interactive Weather Map New forecast layout! Learn more

10-Day Weather Forecast

Advertisements
Track Severe Weather on mobile